Time;durP1;ratioP1;P1;durP2;ratioP2;P2;SDS_P1;SDS_P2;PMS_P1;PMS_P2;Temp;Humidity;BMP_temperature;BMP_pressure;BME280_temperature;BME280_humidity;BME280_pressure;Samples;Min_cycle;Max_cycle;Signal;HPM_P1;HPM_P2
2023/10/08 00:00:54;;;;;;;1.17;0.20;;;;;;;13.77;92.43;102408.94;7402492;19;19922;-66
2023/10/08 00:03:28;;;;;;;1.13;0.32;;;;;;;13.75;92.54;102419.09;7401318;19;19918;-65
2023/10/08 00:05:57;;;;;;;0.20;0.20;;;;;;;13.76;92.36;102418.09;7401797;19;19986;-66
2023/10/08 00:08:26;;;;;;;0.70;0.28;;;;;;;13.78;92.50;102410.66;7401351;19;19930;-66
2023/10/08 00:10:54;;;;;;;1.05;0.20;;;;;;;13.79;92.27;102390.69;7401731;19;19918;-65
2023/10/08 00:13:27;;;;;;;0.20;0.10;;;;;;;13.78;92.51;102387.13;7401401;19;19923;-66
2023/10/08 00:15:55;;;;;;;0.80;0.10;;;;;;;13.78;92.32;102399.81;7401313;19;19922;-66
2023/10/08 00:18:25;;;;;;;0.77;0.20;;;;;;;13.77;92.49;102392.69;7400848;19;19914;-66
2023/10/08 00:21:05;;;;;;;2.10;0.22;;;;;;;13.79;92.76;102399.66;7401970;19;19918;-66
2023/10/08 00:23:35;;;;;;;3.40;0.30;;;;;;;13.80;92.88;102412.19;7401121;19;19984;-65
2023/10/08 00:26:06;;;;;;;2.22;0.10;;;;;;;13.82;92.55;102398.47;7399118;19;19933;-65
2023/10/08 00:28:38;;;;;;;0.95;0.52;;;;;;;13.81;92.33;102407.59;7401222;19;19938;-65
2023/10/08 00:31:12;;;;;;;1.13;0.22;;;;;;;13.79;92.68;102398.81;7400737;19;19921;-65
2023/10/08 00:33:43;;;;;;;3.60;0.70;;;;;;;13.75;92.97;102405.56;7397904;19;19922;-65
2023/10/08 00:36:20;;;;;;;0.30;0.20;;;;;;;13.75;92.59;102411.81;7399882;19;19929;-66
2023/10/08 00:38:53;;;;;;;1.42;0.20;;;;;;;13.78;92.94;102432.31;7399964;19;19922;-65
2023/10/08 00:41:23;;;;;;;0.65;0.40;;;;;;;13.77;92.63;102407.09;7400346;19;19922;-65
2023/10/08 00:43:56;;;;;;;0.80;0.30;;;;;;;13.76;92.85;102400.00;7401039;19;19934;-65
2023/10/08 00:46:30;;;;;;;0.57;0.20;;;;;;;13.75;92.54;102405.56;7399903;19;19939;-65
2023/10/08 00:49:17;;;;;;;0.60;0.30;;;;;;;13.73;92.72;102412.97;7400958;19;19930;-65
2023/10/08 00:51:59;;;;;;;0.85;0.28;;;;;;;13.70;93.02;102416.88;7400672;19;19986;-65
2023/10/08 00:54:32;;;;;;;0.40;0.30;;;;;;;13.70;93.06;102414.16;7399925;19;20000;-65
2023/10/08 00:57:05;;;;;;;0.25;0.20;;;;;;;13.70;93.27;102418.72;7400740;19;20264;-65
2023/10/08 00:59:49;;;;;;;1.38;0.30;;;;;;;13.71;93.19;102436.69;7400879;19;19944;-65
2023/10/08 01:02:21;;;;;;;1.85;0.40;;;;;;;13.73;93.08;102429.22;7400034;19;19924;-65
2023/10/08 01:04:50;;;;;;;1.88;0.40;;;;;;;13.73;93.16;102413.84;7401050;19;19919;-65
2023/10/08 01:07:19;;;;;;;1.77;0.32;;;;;;;13.72;93.32;102412.13;7399738;19;19978;-65
2023/10/08 01:09:50;;;;;;;1.02;0.35;;;;;;;13.72;93.33;102416.72;7398291;19;19922;-65
2023/10/08 01:12:23;;;;;;;1.25;0.40;;;;;;;13.71;92.89;102409.59;7398917;19;20331;-65
2023/10/08 01:15:13;;;;;;;2.05;1.45;;;;;;;13.69;93.16;102396.22;7399468;19;19922;-65
2023/10/08 01:17:49;;;;;;;0.90;0.35;;;;;;;13.67;93.09;102395.53;7400065;19;20340;-65
2023/10/08 01:20:33;;;;;;;1.00;0.30;;;;;;;13.66;92.91;102414.63;7398325;19;19922;-65
2023/10/08 01:23:09;;;;;;;0.90;0.38;;;;;;;13.60;92.67;102416.97;7400129;19;19929;-65
2023/10/08 01:25:40;;;;;;;2.15;0.30;;;;;;;13.61;92.26;102434.06;7399476;19;19990;-66
2023/10/08 01:28:15;;;;;;;3.70;0.40;;;;;;;13.59;92.27;102434.22;7399241;19;19919;-65
2023/10/08 01:30:46;;;;;;;3.60;0.40;;;;;;;13.60;92.28;102443.19;7399356;19;20380;-65
2023/10/08 01:33:20;;;;;;;2.50;0.50;;;;;;;13.59;92.56;102433.41;7399587;19;20374;-65
2023/10/08 01:35:50;;;;;;;2.10;0.40;;;;;;;13.59;92.62;102431.50;7399686;19;19919;-65
2023/10/08 01:38:23;;;;;;;2.33;0.40;;;;;;;13.59;92.69;102427.97;7398901;19;20366;-65
2023/10/08 01:40:53;;;;;;;0.82;0.47;;;;;;;13.57;92.79;102433.53;7399027;19;19918;-65
2023/10/08 01:43:22;;;;;;;1.60;0.80;;;;;;;13.54;92.78;102424.91;7399055;19;19918;-65
2023/10/08 01:45:52;;;;;;;3.25;0.38;;;;;;;13.54;92.77;102433.88;7408157;19;19935;-65
2023/10/08 01:48:33;;;;;;;2.40;0.40;;;;;;;13.53;93.08;102421.34;7412890;19;20346;-65
2023/10/08 01:51:04;;;;;;;1.48;0.60;;;;;;;13.51;93.06;102398.13;7412438;19;19918;-65
2023/10/08 01:53:36;;;;;;;1.52;0.60;;;;;;;13.51;93.11;102414.34;7412317;19;19988;-65
2023/10/08 01:56:06;;;;;;;2.85;0.40;;;;;;;13.50;92.95;102421.63;7412906;19;19922;-65
2023/10/08 01:58:36;;;;;;;2.45;0.50;;;;;;;13.49;93.29;102425.38;7412872;19;19925;-65
2023/10/08 02:01:11;;;;;;;5.53;0.50;;;;;;;13.51;92.00;102436.03;7412661;19;19948;-65
2023/10/08 02:03:41;;;;;;;3.53;0.30;;;;;;;13.51;91.72;102452.25;7412382;19;20283;-65
2023/10/08 02:06:31;;;;;;;2.58;0.50;;;;;;;13.52;92.29;102454.81;7411188;19;19919;-65
2023/10/08 02:09:14;;;;;;;1.77;0.50;;;;;;;13.53;91.82;102471.94;7412181;19;20374;-65
2023/10/08 02:12:03;;;;;;;1.38;0.35;;;;;;;13.52;92.15;102475.63;7409836;19;19937;-65
2023/10/08 02:14:52;;;;;;;1.25;0.35;;;;;;;13.51;91.97;102465.81;7410850;19;20022;-65
2023/10/08 02:17:41;;;;;;;2.17;0.47;;;;;;;13.48;91.97;102458.00;7410359;19;19918;-65
2023/10/08 02:20:11;;;;;;;3.90;0.65;;;;;;;13.47;92.23;102462.56;7410983;19;20287;-65
2023/10/08 02:23:00;;;;;;;1.65;0.47;;;;;;;13.43;92.07;102461.19;7410158;19;19915;-65
2023/10/08 02:25:34;;;;;;;1.48;0.30;;;;;;;13.46;91.48;102470.88;7413268;19;19914;-66
2023/10/08 02:28:05;;;;;;;3.92;1.20;;;;;;;13.46;91.20;102468.97;7409986;19;20515;-66
2023/10/08 02:30:34;;;;;;;1.80;0.30;;;;;;;13.46;91.99;102482.50;7411714;19;19919;-66
2023/10/08 02:33:02;;;;;;;3.72;0.82;;;;;;;13.48;91.53;102469.69;7411652;19;19914;-66
2023/10/08 02:35:31;;;;;;;0.73;0.57;;;;;;;13.49;91.38;102476.81;7412388;19;19919;-66
2023/10/08 02:38:00;;;;;;;1.67;0.40;;;;;;;13.46;91.11;102479.81;7412130;19;19922;-66
2023/10/08 02:40:35;;;;;;;5.07;0.60;;;;;;;13.45;91.56;102480.84;7411038;19;20260;-66
2023/10/08 02:43:24;;;;;;;4.97;0.50;;;;;;;13.41;91.85;102487.56;7409328;19;20355;-66
2023/10/08 02:45:55;;;;;;;3.95;0.55;;;;;;;13.40;91.84;102491.28;7410670;19;19915;-66
2023/10/08 02:48:24;;;;;;;2.80;0.55;;;;;;;13.37;91.59;102488.91;7409713;19;19944;-66
2023/10/08 02:50:54;;;;;;;3.53;0.50;;;;;;;13.36;91.54;102508.00;7411226;19;19953;-66
2023/10/08 02:53:25;;;;;;;3.58;0.77;;;;;;;13.35;91.64;102504.44;7410685;19;19925;-66
2023/10/08 02:55:57;;;;;;;2.25;0.50;;;;;;;13.34;91.35;102497.31;7409239;19;19948;-66
2023/10/08 02:58:27;;;;;;;3.67;0.88;;;;;;;13.34;91.42;102499.16;7402320;19;20261;-66
2023/10/08 03:00:56;;;;;;;2.45;0.47;;;;;;;13.35;92.05;102503.56;7402402;19;19986;-66
2023/10/08 03:03:28;;;;;;;3.58;0.65;;;;;;;13.36;91.75;102498.00;7402763;19;19954;-66
2023/10/08 03:05:57;;;;;;;3.08;0.70;;;;;;;13.36;92.17;102505.28;7402735;19;19944;-66
2023/10/08 03:08:30;;;;;;;1.15;0.40;;;;;;;13.35;92.52;102498.16;7403337;19;19931;-66
2023/10/08 03:11:06;;;;;;;2.55;0.50;;;;;;;13.33;92.55;102506.41;7401677;19;19927;-66
2023/10/08 03:13:38;;;;;;;6.57;0.50;;;;;;;13.32;92.71;102507.47;7402186;19;19922;-66
2023/10/08 03:16:13;;;;;;;3.78;0.50;;;;;;;13.30;92.96;102495.91;7403222;19;19919;-66
2023/10/08 03:18:45;;;;;;;2.70;0.40;;;;;;;13.29;92.75;102504.22;7400456;19;20388;-66
2023/10/08 03:23:58;;;;;;;1.40;0.75;;;;;;;13.27;92.66;102525.16;7400805;19;20008;-66
2023/10/08 03:26:36;;;;;;;2.22;0.40;;;;;;;13.31;93.06;102513.00;7402961;19;19926;-66
2023/10/08 03:29:08;;;;;;;1.95;0.75;;;;;;;13.31;93.09;102508.44;7402651;19;19919;-66
2023/10/08 03:31:49;;;;;;;4.90;0.80;;;;;;;13.32;93.25;102509.31;7402498;19;20700;-66
2023/10/08 03:34:19;;;;;;;2.97;0.82;;;;;;;13.32;93.55;102517.44;7403104;19;20482;-66
2023/10/08 03:36:50;;;;;;;3.50;0.70;;;;;;;13.32;93.38;102518.28;7401825;19;20283;-66
2023/10/08 03:39:20;;;;;;;2.40;0.50;;;;;;;13.31;93.31;102521.97;7402710;19;19930;-66
2023/10/08 03:41:59;;;;;;;1.70;0.47;;;;;;;13.31;93.20;102518.44;7402229;19;19915;-66
2023/10/08 03:44:29;;;;;;;3.15;0.60;;;;;;;13.30;92.93;102522.97;7401967;19;19919;-66
2023/10/08 03:46:58;;;;;;;4.20;0.65;;;;;;;13.30;93.20;102527.53;7401983;19;19998;-66
2023/10/08 03:49:28;;;;;;;3.22;0.70;;;;;;;13.29;92.97;102529.41;7401903;19;19978;-66
2023/10/08 03:51:57;;;;;;;4.40;1.05;;;;;;;13.29;92.90;102526.69;7402863;19;19919;-66
2023/10/08 03:54:34;;;;;;;2.28;0.73;;;;;;;13.28;92.93;102522.31;7400850;19;20361;-66
2023/10/08 03:57:13;;;;;;;4.70;0.60;;;;;;;13.28;92.36;102543.09;7402036;19;19921;-66
2023/10/08 03:59:42;;;;;;;5.25;0.70;;;;;;;13.27;92.05;102547.66;7402444;19;20337;-66
2023/10/08 04:02:14;;;;;;;4.70;0.80;;;;;;;13.29;92.55;102559.16;7401601;19;20304;-66
2023/10/08 04:04:52;;;;;;;4.38;1.10;;;;;;;13.32;92.32;102567.00;7401765;19;19918;-66
2023/10/08 04:07:39;;;;;;;3.42;0.80;;;;;;;13.34;91.89;102569.53;7401623;19;20246;-66
2023/10/08 04:12:53;;;;;;;;;;;;;;;13.15;92.63;102565.13;7404012;19;19931;-66
2023/10/08 04:15:23;;;;;;;2.38;0.63;;;;;;;13.29;92.32;102571.88;7401146;19;19978;-66
2023/10/08 04:17:53;;;;;;;4.82;1.05;;;;;;;13.30;92.60;102579.81;7402575;19;20401;-66
2023/10/08 04:20:38;;;;;;;3.38;0.70;;;;;;;13.30;91.76;102595.22;7400442;19;19982;-66
2023/10/08 04:23:13;;;;;;;4.38;0.88;;;;;;;13.29;91.82;102593.53;7401326;19;19948;-66
2023/10/08 04:25:44;;;;;;;2.80;0.65;;;;;;;13.29;91.40;102602.47;7400971;19;20330;-66
2023/10/08 04:28:17;;;;;;;3.45;0.70;;;;;;;13.30;91.85;102612.31;7401654;19;19950;-66
2023/10/08 04:30:47;;;;;;;3.55;1.00;;;;;;;13.28;91.52;102630.56;7400895;19;19918;-66
2023/10/08 04:33:16;;;;;;;5.40;1.00;;;;;;;13.29;91.41;102640.38;7401044;19;19948;-66
2023/10/08 04:35:51;;;;;;;4.28;0.93;;;;;;;13.31;91.79;102642.94;7401152;19;19977;-66
2023/10/08 04:38:22;;;;;;;5.25;0.70;;;;;;;13.33;91.29;102630.94;7400289;19;19966;-66
2023/10/08 04:40:52;;;;;;;3.67;1.08;;;;;;;13.32;91.44;102613.03;7400664;19;20032;-66
2023/10/08 04:43:25;;;;;;;3.25;0.88;;;;;;;13.33;91.92;102616.59;7400163;19;19929;-66
2023/10/08 04:45:53;;;;;;;2.10;0.60;;;;;;;13.30;92.20;102609.59;7401142;19;20257;-66
2023/10/08 04:48:23;;;;;;;5.88;0.90;;;;;;;13.30;91.40;102606.88;7400599;19;20341;-66
2023/10/08 04:50:58;;;;;;;2.60;1.00;;;;;;;13.28;92.08;102622.44;7401223;19;19929;-66
2023/10/08 04:53:31;;;;;;;4.30;0.65;;;;;;;13.27;91.37;102622.59;7401120;19;19919;-66
2023/10/08 04:56:05;;;;;;;3.55;0.70;;;;;;;13.29;91.13;102626.00;7400791;19;19926;-66
2023/10/08 04:58:40;;;;;;;3.08;0.75;;;;;;;13.28;91.22;102629.72;7400855;19;19915;-66
2023/10/08 05:01:20;;;;;;;2.05;0.82;;;;;;;13.27;90.08;102628.00;7399636;19;19926;-67
2023/10/08 05:06:50;;;;;;;4.65;0.70;;;;;;;13.28;88.43;102645.97;7400317;19;19926;-66
2023/10/08 05:09:22;;;;;;;2.42;0.70;;;;;;;13.27;88.72;102630.72;7400158;19;20620;-66
2023/10/08 05:14:45;;;;;;;4.47;0.80;;;;;;;13.26;87.92;102604.63;7399474;19;19936;-66
2023/10/08 05:17:21;;;;;;;4.25;0.63;;;;;;;13.24;89.29;102607.53;7399221;19;19922;-66
2023/10/08 05:20:01;;;;;;;4.10;0.98;;;;;;;13.23;88.37;102615.78;7398411;19;20410;-66
2023/10/08 05:22:43;;;;;;;3.88;0.88;;;;;;;13.21;88.72;102599.69;7399863;19;19922;-66
2023/10/08 05:25:24;;;;;;;3.22;0.82;;;;;;;13.16;89.11;102616.38;7400649;19;19914;-66
2023/10/08 05:27:56;;;;;;;3.22;0.70;;;;;;;13.13;89.46;102611.28;7399478;19;20345;-66
2023/10/08 05:30:38;;;;;;;3.00;0.55;;;;;;;13.09;89.45;102611.69;7399529;19;19914;-67
2023/10/08 05:33:24;;;;;;;4.45;0.57;;;;;;;13.05;89.94;102613.00;7399220;19;20250;-66
2023/10/08 05:36:02;;;;;;;3.65;0.73;;;;;;;13.00;90.25;102607.19;7398646;19;19919;-66
2023/10/08 05:38:48;;;;;;;4.32;0.73;;;;;;;12.98;90.48;102601.09;7398659;19;19915;-66
2023/10/08 05:41:38;;;;;;;4.53;1.10;;;;;;;12.95;90.48;102591.41;7398709;19;19919;-66
2023/10/08 05:44:23;;;;;;;3.38;0.90;;;;;;;12.92;90.48;102596.25;7398975;19;19935;-66
2023/10/08 05:49:54;;;;;;;2.85;0.88;;;;;;;12.85;90.34;102608.69;7398315;19;19922;-66
2023/10/08 05:52:37;;;;;;;4.70;0.60;;;;;;;12.84;90.59;102609.69;7397734;19;19970;-66
2023/10/08 05:58:05;;;;;;;2.40;0.55;;;;;;;12.79;90.70;102606.56;7397948;19;19918;-66
2023/10/08 06:11:44;;;;;;;6.15;1.00;;;;;;;12.82;89.35;102639.56;7398030;19;19998;-66
2023/10/08 06:14:13;;;;;;;3.78;0.80;;;;;;;12.83;89.70;102638.59;7397629;19;19964;-66
2023/10/08 06:16:52;;;;;;;5.50;0.70;;;;;;;12.84;89.97;102624.06;7397906;19;20419;-66
2023/10/08 06:19:21;;;;;;;4.00;0.70;;;;;;;12.83;89.78;102632.31;7397637;19;19947;-66
2023/10/08 06:21:49;;;;;;;6.28;0.85;;;;;;;12.84;89.87;102642.16;7397331;19;20352;-66
2023/10/08 06:24:20;;;;;;;6.18;0.80;;;;;;;12.84;89.12;102656.53;7397077;19;19954;-66
2023/10/08 06:26:51;;;;;;;8.70;1.45;;;;;;;12.86;87.66;102668.03;7396718;19;19914;-66
2023/10/08 06:29:27;;;;;;;5.85;0.88;;;;;;;12.90;87.27;102674.03;7397040;19;19922;-66
2023/10/08 06:31:56;;;;;;;5.95;1.10;;;;;;;12.91;88.03;102671.16;7399264;19;19919;-66
2023/10/08 06:34:27;;;;;;;3.50;0.77;;;;;;;12.91;88.57;102651.34;7403350;19;20021;-66
2023/10/08 06:36:58;;;;;;;2.38;0.60;;;;;;;12.92;88.86;102661.19;7403252;19;19954;-66
2023/10/08 06:39:33;;;;;;;3.40;0.73;;;;;;;12.93;88.75;102668.31;7403757;19;19922;-66
2023/10/08 06:42:02;;;;;;;3.22;1.10;;;;;;;12.94;88.13;102670.03;7403841;19;20400;-66
2023/10/08 06:44:31;;;;;;;5.95;0.82;;;;;;;12.96;87.98;102682.38;7403743;19;19925;-66
2023/10/08 06:47:00;;;;;;;4.28;0.80;;;;;;;13.01;87.55;102687.34;7402086;19;20318;-66
2023/10/08 06:49:31;;;;;;;3.15;0.73;;;;;;;13.05;87.40;102686.06;7402401;19;20268;-66
2023/10/08 06:52:00;;;;;;;2.25;0.63;;;;;;;13.08;86.82;102667.66;7403120;19;19914;-66
2023/10/08 06:54:30;;;;;;;6.60;1.23;;;;;;;13.14;86.96;102677.06;7402738;19;19943;-66
2023/10/08 06:56:59;;;;;;;3.45;0.80;;;;;;;13.18;86.32;102687.44;7403267;19;19922;-66
2023/10/08 06:59:31;;;;;;;8.48;1.00;;;;;;;13.25;86.39;102684.13;7401717;19;20317;-66
2023/10/08 07:01:59;;;;;;;4.72;0.93;;;;;;;13.27;86.39;102677.56;7403412;19;19919;-66
2023/10/08 07:04:31;;;;;;;7.72;1.45;;;;;;;13.30;86.08;102695.34;7403015;19;20578;-66
2023/10/08 07:07:00;;;;;;;4.45;0.95;;;;;;;13.34;86.38;102700.31;7402971;19;19927;-66
2023/10/08 07:09:36;;;;;;;9.25;1.35;;;;;;;13.38;86.93;102701.72;7402779;19;19925;-66
2023/10/08 07:12:06;;;;;;;4.07;0.82;;;;;;;13.41;86.45;102706.88;7403356;19;19933;-66
2023/10/08 07:14:35;;;;;;;3.28;1.73;;;;;;;13.45;86.74;102692.00;7401687;19;19986;-66
2023/10/08 07:17:08;;;;;;;5.90;1.00;;;;;;;13.50;87.14;102692.38;7401325;19;19926;-66
2023/10/08 07:19:40;;;;;;;4.75;0.75;;;;;;;13.54;85.14;102707.34;7402610;19;20420;-66
2023/10/08 07:22:22;;;;;;;7.63;1.38;;;;;;;13.60;85.41;102698.59;7402282;19;19993;-66
2023/10/08 07:24:51;;;;;;;4.78;0.98;;;;;;;13.64;85.51;102694.59;7402222;19;19929;-66
2023/10/08 07:27:21;;;;;;;7.28;0.90;;;;;;;13.71;85.33;102705.69;7403144;19;19999;-65
2023/10/08 07:29:50;;;;;;;4.97;0.90;;;;;;;13.78;85.77;102714.88;7401687;19;20359;-66
2023/10/08 07:32:18;;;;;;;5.30;0.80;;;;;;;13.83;85.29;102711.72;7401600;19;19915;-66
2023/10/08 07:34:57;;;;;;;5.43;0.85;;;;;;;13.86;85.75;102719.53;7401770;19;19970;-66
2023/10/08 07:37:26;;;;;;;3.35;1.35;;;;;;;13.88;85.19;102731.09;7400986;19;19930;-66
2023/10/08 07:39:55;;;;;;;2.92;0.80;;;;;;;13.90;85.85;102731.75;7402240;19;19930;-66
2023/10/08 07:42:23;;;;;;;6.95;0.95;;;;;;;13.90;84.68;102745.31;7401533;19;19923;-66
2023/10/08 07:44:54;;;;;;;4.18;0.75;;;;;;;13.88;83.31;102769.00;7401115;19;20349;-66
2023/10/08 07:47:21;;;;;;;5.00;0.80;;;;;;;13.89;84.10;102771.56;7401292;19;20703;-66
2023/10/08 07:49:53;;;;;;;3.47;0.70;;;;;;;13.94;83.30;102773.81;7401476;19;20257;-66
2023/10/08 07:52:23;;;;;;;4.50;0.90;;;;;;;13.97;84.31;102755.41;7402541;19;20389;-66
2023/10/08 07:54:53;;;;;;;6.45;1.00;;;;;;;14.00;85.75;102751.53;7402047;19;19963;-66
2023/10/08 07:57:25;;;;;;;3.25;0.60;;;;;;;14.03;85.10;102762.06;7401587;19;19914;-66
2023/10/08 07:59:55;;;;;;;7.22;1.40;;;;;;;14.06;84.44;102767.19;7402220;19;19944;-66
2023/10/08 08:02:26;;;;;;;5.28;0.77;;;;;;;14.06;82.50;102778.84;7401052;19;20369;-66
2023/10/08 08:04:58;;;;;;;2.45;0.68;;;;;;;14.07;82.39;102777.00;7402042;19;19927;-66
2023/10/08 08:07:27;;;;;;;5.22;1.00;;;;;;;14.07;82.88;102766.16;7401559;19;19947;-66
2023/10/08 08:10:01;;;;;;;8.02;1.10;;;;;;;14.07;82.54;102756.16;7400847;19;19915;-65
2023/10/08 08:12:32;;;;;;;4.45;0.80;;;;;;;14.09;83.71;102740.63;7400950;19;19922;-66
2023/10/08 08:15:03;;;;;;;5.70;0.70;;;;;;;14.14;83.98;102744.72;7401645;19;19923;-66
2023/10/08 08:17:33;;;;;;;6.85;1.00;;;;;;;14.20;85.19;102739.53;7401154;19;19921;-66
2023/10/08 08:20:17;;;;;;;2.53;0.80;;;;;;;14.25;85.34;102729.06;7401344;19;19956;-66
2023/10/08 08:22:49;;;;;;;3.22;0.65;;;;;;;14.31;85.59;102717.63;7401770;19;19914;-66
2023/10/08 08:25:26;;;;;;;3.65;0.73;;;;;;;14.40;85.79;102705.00;7401042;19;20370;-66
2023/10/08 08:27:55;;;;;;;3.80;0.75;;;;;;;14.47;85.41;102723.19;7401680;19;19918;-66
2023/10/08 08:30:26;;;;;;;4.75;0.80;;;;;;;14.53;84.00;102705.44;7400533;19;19944;-66
2023/10/08 08:32:56;;;;;;;5.32;0.80;;;;;;;14.59;83.17;102703.94;7401555;19;19983;-66
2023/10/08 08:35:27;;;;;;;8.88;1.02;;;;;;;14.64;82.31;102737.72;7400365;19;19926;-66
2023/10/08 08:37:55;;;;;;;6.45;1.00;;;;;;;14.69;82.36;102718.28;7401436;19;19914;-66
2023/10/08 08:40:24;;;;;;;3.67;0.90;;;;;;;14.72;81.10;102764.06;7401358;19;19919;-66
2023/10/08 08:42:55;;;;;;;4.95;0.70;;;;;;;14.75;79.90;102801.75;7401284;19;20317;-66
2023/10/08 08:45:26;;;;;;;6.38;0.82;;;;;;;14.77;78.68;102797.00;7401354;19;19919;-66
2023/10/08 08:47:55;;;;;;;8.15;0.80;;;;;;;14.77;78.08;102764.44;7400958;19;19923;-66
2023/10/08 08:50:27;;;;;;;6.47;1.00;;;;;;;14.77;77.65;102826.84;7401071;19;19958;-66
2023/10/08 08:52:58;;;;;;;4.78;1.20;;;;;;;14.79;77.76;102849.25;7401118;19;20288;-66
2023/10/08 08:55:28;;;;;;;5.82;0.60;;;;;;;14.80;76.23;102849.09;7398675;19;19929;-67
2023/10/08 08:57:57;;;;;;;4.47;1.00;;;;;;;14.82;76.76;102809.09;7400769;19;19948;-66
2023/10/08 09:00:29;;;;;;;2.83;0.98;;;;;;;14.87;76.61;102836.63;7400706;19;19919;-66
2023/10/08 09:02:57;;;;;;;;;;;;;;;14.77;75.81;102806.00;7403668;19;19926;-66
2023/10/08 09:05:34;;;;;;;;;;;;;;;14.82;76.42;102827.22;7403325;19;19922;-66
2023/10/08 09:08:06;;;;;;;6.32;0.85;;;;;;;15.08;75.29;102841.69;7400885;19;19977;-66
2023/10/08 09:10:37;;;;;;;4.05;0.98;;;;;;;15.29;74.09;102825.03;7399599;19;19948;-66
2023/10/08 09:13:09;;;;;;;5.60;0.70;;;;;;;15.41;74.79;102837.31;7399855;19;20369;-66
2023/10/08 09:15:38;;;;;;;4.97;0.65;;;;;;;15.47;72.08;102846.69;7399820;19;19948;-67
2023/10/08 09:18:09;;;;;;;5.00;1.10;;;;;;;15.49;71.56;102837.34;7400575;19;19974;-66
2023/10/08 09:20:43;;;;;;;4.93;1.02;;;;;;;15.53;71.84;102843.38;7400149;19;19930;-66
2023/10/08 09:23:14;;;;;;;5.60;0.80;;;;;;;15.56;70.91;102846.63;7399854;19;19918;-66
2023/10/08 09:25:43;;;;;;;4.00;0.90;;;;;;;15.57;70.86;102842.03;7400226;19;19935;-66
2023/10/08 09:28:13;;;;;;;2.90;0.77;;;;;;;15.59;69.94;102823.69;7400307;19;19926;-66
2023/10/08 09:30:44;;;;;;;8.95;1.17;;;;;;;15.62;70.19;102823.41;7400485;19;19914;-66
2023/10/08 09:33:15;;;;;;;8.57;1.08;;;;;;;15.65;70.64;102817.63;7399768;19;19926;-66
2023/10/08 09:35:51;;;;;;;5.55;0.95;;;;;;;15.68;69.90;102828.16;7399771;19;19926;-66
2023/10/08 09:38:23;;;;;;;3.15;0.55;;;;;;;15.69;70.71;102814.41;7399471;19;19930;-66
2023/10/08 09:40:53;;;;;;;3.40;1.05;;;;;;;15.73;71.20;102814.94;7400100;19;19918;-66
2023/10/08 09:43:22;;;;;;;8.93;1.08;;;;;;;15.73;70.32;102823.09;7398994;19;20019;-66
2023/10/08 09:45:56;;;;;;;4.88;0.82;;;;;;;15.74;70.23;102833.81;7399909;19;19930;-66
2023/10/08 09:48:30;;;;;;;7.88;1.20;;;;;;;15.78;69.92;102831.63;7399501;19;19940;-66
2023/10/08 09:51:06;;;;;;;8.98;0.98;;;;;;;15.78;69.35;102832.47;7398047;19;19919;-66
2023/10/08 09:53:44;;;;;;;7.97;1.10;;;;;;;15.80;70.31;102818.69;7399275;19;19936;-66
2023/10/08 09:56:17;;;;;;;6.07;1.15;;;;;;;15.83;69.98;102813.78;7398647;19;19922;-66
2023/10/08 09:58:49;;;;;;;6.55;0.82;;;;;;;15.82;69.79;102786.78;7399599;19;19923;-66
2023/10/08 10:01:19;;;;;;;2.30;0.60;;;;;;;15.81;69.45;102794.09;7398944;19;20284;-66
2023/10/08 10:03:49;;;;;;;4.90;1.20;;;;;;;15.84;69.39;102812.78;7398619;19;19974;-66
2023/10/08 10:06:22;;;;;;;6.63;1.02;;;;;;;15.88;68.43;102818.72;7400508;19;19924;-66
2023/10/08 10:08:51;;;;;;;4.60;0.95;;;;;;;15.92;69.11;102827.44;7403918;19;20313;-66
2023/10/08 10:11:19;;;;;;;4.38;1.23;;;;;;;15.94;68.85;102826.22;7404171;19;20287;-66
2023/10/08 10:13:54;;;;;;;6.63;0.80;;;;;;;15.97;68.01;102816.88;7404090;19;20315;-66
2023/10/08 10:16:24;;;;;;;4.00;1.10;;;;;;;16.00;68.45;102822.00;7404578;19;20377;-66
2023/10/08 10:18:53;;;;;;;4.85;0.98;;;;;;;16.02;68.36;102828.97;7403111;19;19930;-66
2023/10/08 10:21:33;;;;;;;3.42;0.80;;;;;;;16.03;66.87;102830.69;7404352;19;19922;-66
2023/10/08 10:24:05;;;;;;;9.02;0.82;;;;;;;16.09;67.62;102851.75;7403515;19;19922;-66
2023/10/08 10:26:40;;;;;;;5.25;0.70;;;;;;;16.11;68.29;102846.16;7402849;19;19951;-66
2023/10/08 10:29:26;;;;;;;4.47;0.80;;;;;;;16.09;65.28;102853.66;7403533;19;19919;-66
2023/10/08 10:31:56;;;;;;;4.43;0.75;;;;;;;16.17;65.81;102851.81;7403641;19;20278;-66
2023/10/08 10:34:27;;;;;;;4.63;0.82;;;;;;;16.20;65.37;102851.47;7403912;19;19982;-66
2023/10/08 10:37:08;;;;;;;5.90;0.95;;;;;;;16.23;64.96;102850.28;7404017;19;19926;-66
2023/10/08 10:39:39;;;;;;;4.80;0.93;;;;;;;16.25;65.42;102851.81;7404108;19;20349;-66
2023/10/08 10:42:20;;;;;;;4.28;0.70;;;;;;;16.28;65.30;102847.91;7403482;19;19960;-66
2023/10/08 10:44:53;;;;;;;6.22;1.20;;;;;;;16.31;64.14;102855.72;7403482;19;19919;-66
2023/10/08 10:47:42;;;;;;;5.07;0.95;;;;;;;16.38;62.65;102839.59;7403663;19;19918;-66
2023/10/08 10:52:58;;;;;;;2.85;0.60;;;;;;;16.53;61.38;102814.28;7403553;19;19923;-66
2023/10/08 10:55:32;;;;;;;4.50;0.98;;;;;;;16.64;60.79;102827.59;7402957;19;19922;-66
2023/10/08 10:58:15;;;;;;;3.00;0.65;;;;;;;16.74;61.90;102830.13;7403068;19;19930;-66
2023/10/08 11:00:56;;;;;;;4.53;0.82;;;;;;;16.78;60.79;102829.63;7402292;19;19919;-66
2023/10/08 11:03:28;;;;;;;1.95;0.60;;;;;;;16.76;60.28;102828.13;7402841;19;19919;-66
2023/10/08 11:05:59;;;;;;;6.85;1.00;;;;;;;16.78;62.55;102816.03;7402349;19;20266;-66
2023/10/08 11:08:34;;;;;;;6.90;0.60;;;;;;;16.80;61.01;102810.41;7402800;19;19929;-66
2023/10/08 11:11:05;;;;;;;3.53;0.73;;;;;;;16.78;60.31;102788.81;7402798;19;20345;-66
2023/10/08 11:13:39;;;;;;;4.95;0.70;;;;;;;16.78;61.48;102766.19;7402160;19;20266;-66
2023/10/08 11:16:13;;;;;;;4.18;0.80;;;;;;;16.78;60.92;102768.94;7402587;19;19936;-66
2023/10/08 11:18:47;;;;;;;4.15;0.98;;;;;;;16.78;57.99;102764.31;7400369;19;19926;-66
2023/10/08 11:21:23;;;;;;;4.72;1.10;;;;;;;16.79;60.26;102729.78;7401722;19;19923;-66
2023/10/08 11:23:55;;;;;;;3.63;0.77;;;;;;;16.89;60.34;102711.38;7401806;19;19966;-66
2023/10/08 11:26:33;;;;;;;4.65;0.65;;;;;;;16.96;60.92;102711.53;7400934;19;19993;-66
2023/10/08 11:29:03;;;;;;;;;;;;;;;16.86;58.11;102728.06;7404764;19;19919;-66
2023/10/08 11:31:33;;;;;;;4.90;0.70;;;;;;;17.00;61.06;102745.59;7400774;19;19922;-66
2023/10/08 11:34:08;;;;;;;7.32;1.08;;;;;;;16.99;58.42;102749.31;7401088;19;19922;-66
2023/10/08 11:36:48;;;;;;;7.68;1.63;;;;;;;16.96;59.12;102755.94;7401679;19;19944;-66
2023/10/08 11:39:31;;;;;;;4.75;0.85;;;;;;;16.92;59.95;102761.91;7402623;19;19919;-66
2023/10/08 11:42:03;;;;;;;3.60;0.60;;;;;;;16.90;58.95;102767.53;7400435;19;19921;-66
2023/10/08 11:44:35;;;;;;;3.72;0.60;;;;;;;16.92;60.38;102749.16;7401616;19;19918;-66
2023/10/08 11:47:11;;;;;;;3.88;0.85;;;;;;;17.05;61.41;102752.19;7401520;19;19943;-66
2023/10/08 11:49:46;;;;;;;9.10;1.27;;;;;;;17.17;60.96;102750.78;7400508;19;20285;-66
2023/10/08 11:52:15;;;;;;;5.35;1.17;;;;;;;17.26;60.48;102750.78;7401521;19;19938;-66
2023/10/08 11:54:48;;;;;;;4.22;0.88;;;;;;;17.26;57.35;102757.06;7401623;19;19922;-66
2023/10/08 11:57:21;;;;;;;4.80;0.75;;;;;;;17.26;57.73;102756.25;7400989;19;19926;-66
2023/10/08 11:59:52;;;;;;;4.82;0.90;;;;;;;17.28;58.11;102752.28;7401672;19;19922;-66
2023/10/08 12:02:21;;;;;;;5.18;0.98;;;;;;;17.33;58.83;102746.31;7401533;19;20588;-66
2023/10/08 12:04:51;;;;;;;5.03;0.80;;;;;;;17.40;59.26;102744.59;7400922;19;19935;-66
2023/10/08 12:07:20;;;;;;;2.28;0.90;;;;;;;17.38;59.31;102739.34;7399704;19;20298;-66
2023/10/08 12:09:54;;;;;;;2.40;0.65;;;;;;;17.33;55.42;102740.88;7400941;19;19925;-66
2023/10/08 12:12:23;;;;;;;3.92;0.80;;;;;;;17.30;55.94;102742.06;7400415;19;19911;-66
2023/10/08 12:14:54;;;;;;;5.03;0.95;;;;;;;17.33;58.35;102744.44;7401980;19;19915;-66
2023/10/08 12:17:37;;;;;;;2.80;0.60;;;;;;;17.38;58.31;102743.94;7401213;19;20337;-66
2023/10/08 12:20:22;;;;;;;5.15;0.98;;;;;;;17.35;57.73;102744.25;7400336;19;19927;-66
2023/10/08 12:22:51;;;;;;;3.33;1.02;;;;;;;17.34;57.47;102742.59;7400697;19;20340;-66
2023/10/08 12:25:22;;;;;;;5.55;0.98;;;;;;;17.32;56.56;102739.16;7400731;19;19948;-66